Time,TemperatureF,DewpointF,PressureIn,WindDirection,WindDirectionDegrees,WindSpeedMPH,WindSpeedGustMPH,Humidity,HourlyPrecipIn,Conditions,Clouds,dailyrainin,SolarRadiationWatts/m^2,SoftwareType,DateUTC
2013-11-28 00:01:00,18.0,11.0,-100.00,NW,308,3.0,5.0,73,0.00,,,0.06,0.000000,,2013-11-28 07:01:00,
2013-11-28 00:42:00,16.0,9.0,-100.00,NW,310,2.0,4.0,74,0.00,,,0.06,0.000000,,2013-11-28 07:42:00,
2013-11-28 00:52:00,16.0,9.0,-100.00,NW,310,2.0,4.0,74,0.00,,,0.06,0.000000,,2013-11-28 07:52:00,
2013-11-28 01:02:00,16.0,9.0,-100.00,NW,310,2.0,4.0,74,0.00,,,0.06,0.000000,,2013-11-28 08:02:00,
2013-11-28 01:42:00,17.0,11.0,-100.00,NW,307,2.0,5.0,76,0.00,,,0.06,0.000000,,2013-11-28 08:42:00,
2013-11-28 01:53:00,17.0,11.0,-100.00,NW,307,2.0,5.0,76,0.00,,,0.06,0.000000,,2013-11-28 08:53:00,
2013-11-28 02:02:00,17.0,11.0,-100.00,NW,307,2.0,5.0,76,0.00,,,0.06,0.000000,,2013-11-28 09:02:00,
2013-11-28 02:43:00,17.0,10.0,-100.00,NNW,335,2.0,4.0,72,0.00,,,0.06,0.000000,,2013-11-28 09:43:00,
2013-11-28 02:53:00,17.0,10.0,-100.00,NNW,335,2.0,4.0,72,0.00,,,0.06,0.000000,,2013-11-28 09:53:00,
2013-11-28 03:02:00,17.0,10.0,-100.00,NNW,335,2.0,4.0,72,0.00,,,0.06,0.000000,,2013-11-28 10:02:00,
2013-11-28 03:43:00,14.0,8.0,-100.00,NNW,329,1.0,4.0,78,0.00,,,0.06,0.000000,,2013-11-28 10:43:00,
2013-11-28 03:53:00,14.0,8.0,-100.00,NNW,329,1.0,4.0,78,0.00,,,0.06,0.000000,,2013-11-28 10:53:00,
2013-11-28 04:02:00,14.0,8.0,-100.00,NNW,329,1.0,4.0,78,0.00,,,0.06,0.000000,,2013-11-28 11:02:00,
2013-11-28 04:42:00,13.0,7.0,-100.00,NNW,335,2.0,5.0,77,0.00,,,0.06,0.000000,,2013-11-28 11:42:00,
2013-11-28 04:52:00,13.0,7.0,-100.00,NNW,335,2.0,5.0,77,0.00,,,0.06,0.000000,,2013-11-28 11:52:00,
2013-11-28 05:02:00,13.0,7.0,-100.00,NNW,335,2.0,5.0,77,0.00,,,0.06,0.000000,,2013-11-28 12:02:00,
2013-11-28 05:42:00,13.0,8.0,-100.00,NNW,330,1.0,5.0,79,0.00,,,0.06,0.000000,,2013-11-28 12:42:00,
2013-11-28 05:52:00,13.0,8.0,-100.00,NNW,330,1.0,5.0,79,0.00,,,0.06,0.000000,,2013-11-28 12:52:00,
2013-11-28 06:01:00,13.0,8.0,-100.00,NNW,330,1.0,5.0,79,0.00,,,0.06,0.000000,,2013-11-28 13:01:00,
2013-11-28 06:42:00,12.0,7.0,-100.00,NW,312,2.0,4.0,80,0.00,,,0.06,0.000000,,2013-11-28 13:42:00,
2013-11-28 06:52:00,12.0,7.0,-100.00,NW,312,2.0,4.0,80,0.00,,,0.06,0.000000,,2013-11-28 13:52:00,
2013-11-28 07:02:00,12.0,7.0,-100.00,NW,312,2.0,4.0,80,0.00,,,0.06,0.000000,,2013-11-28 14:02:00,
2013-11-28 07:42:00,12.0,7.0,-100.00,NW,310,3.0,5.0,81,0.00,,,0.06,1.000000,,2013-11-28 14:42:00,
2013-11-28 07:52:00,12.0,7.0,-100.00,NW,310,3.0,5.0,81,0.00,,,0.06,1.000000,,2013-11-28 14:52:00,
2013-11-28 08:02:00,12.0,7.0,-100.00,NW,310,3.0,5.0,81,0.00,,,0.06,1.000000,,2013-11-28 15:02:00,
2013-11-28 08:44:00,16.0,9.0,-100.00,NW,311,1.0,4.0,73,0.00,,,0.06,64.000000,,2013-11-28 15:44:00,
2013-11-28 08:54:00,16.0,9.0,-100.00,NW,311,1.0,4.0,73,0.00,,,0.06,64.000000,,2013-11-28 15:54:00,
2013-11-28 09:03:00,16.0,9.0,-100.00,NW,311,1.0,4.0,73,0.00,,,0.06,64.000000,,2013-11-28 16:03:00,
2013-11-28 09:43:00,25.0,14.0,-100.00,ENE,69,2.0,5.0,62,0.00,,,0.06,238.000000,,2013-11-28 16:43:00,
2013-11-28 09:54:00,25.0,14.0,-100.00,ENE,69,2.0,5.0,62,0.00,,,0.06,238.000000,,2013-11-28 16:54:00,
2013-11-28 10:02:00,25.0,14.0,-100.00,ENE,69,2.0,5.0,62,0.00,,,0.06,238.000000,,2013-11-28 17:02:00,
2013-11-28 10:42:00,32.0,14.0,-100.00,NE,38,2.0,4.0,47,0.00,,,0.06,406.000000,,2013-11-28 17:42:00,
2013-11-28 10:52:00,32.0,14.0,-100.00,NE,38,2.0,4.0,47,0.00,,,0.06,406.000000,,2013-11-28 17:52:00,
2013-11-28 11:02:00,32.0,14.0,-100.00,NE,38,2.0,4.0,47,0.00,,,0.06,406.000000,,2013-11-28 18:02:00,
2013-11-28 11:42:00,38.0,16.0,-100.00,East,84,2.0,4.0,41,0.00,,,0.05,516.000000,,2013-11-28 18:42:00,
2013-11-28 11:52:00,38.0,16.0,-100.00,East,84,2.0,4.0,41,0.00,,,0.05,516.000000,,2013-11-28 18:52:00,
2013-11-28 12:02:00,38.0,16.0,-100.00,East,84,2.0,4.0,41,0.00,,,0.05,516.000000,,2013-11-28 19:02:00,
2013-11-28 12:42:00,41.0,14.0,-100.00,South,172,3.0,7.0,33,0.00,,,0.04,601.000000,,2013-11-28 19:42:00,
2013-11-28 12:52:00,41.0,14.0,-100.00,South,172,3.0,7.0,33,0.00,,,0.04,601.000000,,2013-11-28 19:52:00,
2013-11-28 13:01:00,41.0,14.0,-100.00,South,172,3.0,7.0,33,0.00,,,0.04,601.000000,,2013-11-28 20:01:00,
2013-11-28 13:42:00,41.0,13.0,-100.00,SSE,165,5.0,11.0,31,0.00,,,0.03,494.000000,,2013-11-28 20:42:00,
2013-11-28 13:52:00,41.0,13.0,-100.00,SSE,165,5.0,11.0,31,0.00,,,0.03,494.000000,,2013-11-28 20:52:00,
2013-11-28 14:02:00,41.0,13.0,-100.00,SSE,165,5.0,11.0,31,0.00,,,0.03,494.000000,,2013-11-28 21:02:00,
2013-11-28 14:43:00,43.0,14.0,-100.00,SE,126,3.0,9.0,31,0.00,,,0.02,543.000000,,2013-11-28 21:43:00,
2013-11-28 14:53:00,43.0,14.0,-100.00,SE,126,3.0,9.0,31,0.00,,,0.02,543.000000,,2013-11-28 21:53:00,
2013-11-28 15:03:00,43.0,14.0,-100.00,SE,126,3.0,9.0,31,0.00,,,0.02,543.000000,,2013-11-28 22:03:00,
2013-11-28 15:42:00,40.0,11.0,-100.00,SSE,161,7.0,12.0,30,0.00,,,0.01,399.000000,,2013-11-28 22:42:00,
2013-11-28 15:53:00,40.0,11.0,-100.00,SSE,161,7.0,12.0,30,0.00,,,0.01,399.000000,,2013-11-28 22:53:00,
2013-11-28 16:02:00,40.0,11.0,-100.00,SSE,161,7.0,12.0,30,0.00,,,0.01,399.000000,,2013-11-28 23:02:00,
2013-11-28 16:42:00,35.0,12.0,-100.00,SSW,203,4.0,9.0,38,0.00,,,0.00,183.000000,,2013-11-28 23:42:00,
2013-11-28 16:52:00,35.0,12.0,-100.00,SSW,203,4.0,9.0,38,0.00,,,0.00,183.000000,,2013-11-28 23:52:00,
2013-11-28 17:02:00,35.0,12.0,-100.00,SSW,203,4.0,9.0,38,0.00,,,0.00,183.000000,,2013-11-29 00:02:00,
2013-11-28 17:42:00,32.0,10.0,-100.00,South,190,4.0,11.0,39,0.00,,,0.00,7.000000,,2013-11-29 00:42:00,
2013-11-28 17:52:00,32.0,10.0,-100.00,South,190,4.0,11.0,39,0.00,,,0.00,7.000000,,2013-11-29 00:52:00,
2013-11-28 18:01:00,32.0,10.0,-100.00,South,190,4.0,11.0,39,0.00,,,0.00,7.000000,,2013-11-29 01:01:00,
2013-11-28 18:42:00,26.0,10.0,-100.00,NW,316,1.0,8.0,51,0.00,,,0.00,0.000000,,2013-11-29 01:42:00,
2013-11-28 18:52:00,26.0,10.0,-100.00,NW,316,1.0,8.0,51,0.00,,,0.00,0.000000,,2013-11-29 01:52:00,
2013-11-28 19:02:00,26.0,10.0,-100.00,NW,316,1.0,8.0,51,0.00,,,0.00,0.000000,,2013-11-29 02:02:00,
2013-11-28 19:42:00,26.0,10.0,-100.00,NW,315,3.0,4.0,51,0.00,,,0.00,0.000000,,2013-11-29 02:42:00,
2013-11-28 19:52:00,26.0,10.0,-100.00,NW,315,3.0,4.0,51,0.00,,,0.00,0.000000,,2013-11-29 02:52:00,
2013-11-28 20:01:00,26.0,10.0,-100.00,NW,315,3.0,4.0,51,0.00,,,0.00,0.000000,,2013-11-29 03:01:00,
2013-11-28 20:43:00,23.0,10.0,-100.00,NW,321,2.0,4.0,56,0.00,,,0.00,0.000000,,2013-11-29 03:43:00,
2013-11-28 20:54:00,23.0,10.0,-100.00,NW,321,2.0,4.0,56,0.00,,,0.00,0.000000,,2013-11-29 03:54:00,
2013-11-28 21:03:00,23.0,10.0,-100.00,NW,321,2.0,4.0,56,0.00,,,0.00,0.000000,,2013-11-29 04:03:00,
2013-11-28 21:43:00,19.0,9.0,-100.00,NW,310,2.0,4.0,64,0.00,,,0.00,0.000000,,2013-11-29 04:43:00,
2013-11-28 21:52:00,19.0,9.0,-100.00,NW,310,2.0,4.0,64,0.00,,,0.00,0.000000,,2013-11-29 04:52:00,
2013-11-28 22:02:00,19.0,9.0,-100.00,NW,310,2.0,4.0,64,0.00,,,0.00,0.000000,,2013-11-29 05:02:00,
2013-11-28 22:43:00,19.0,9.0,-100.00,NW,315,3.0,5.0,65,0.00,,,0.00,0.000000,,2013-11-29 05:43:00,
2013-11-28 22:53:00,19.0,9.0,-100.00,NW,315,3.0,5.0,65,0.00,,,0.00,0.000000,,2013-11-29 05:53:00,
2013-11-28 23:03:00,19.0,9.0,-100.00,NW,315,3.0,5.0,65,0.00,,,0.00,0.000000,,2013-11-29 06:03:00,
2013-11-28 23:42:00,17.0,9.0,-100.00,NW,309,2.0,5.0,70,0.00,,,0.00,0.000000,,2013-11-29 06:42:00,
2013-11-28 23:52:00,17.0,9.0,-100.00,NW,309,2.0,5.0,70,0.00,,,0.00,0.000000,,2013-11-29 06:52:00,